sensor_id;sensor_type;location;lat;lon;timestamp;pressure;altitude;pressure_sealevel;temperature;humidity
73242;BME280;65659;49.234;-2.094;2023-03-18T00:00:31;99306.85;;;25.80;28.68
73242;BME280;65659;49.234;-2.094;2023-03-18T00:02:57;99306.07;;;25.56;28.62
73242;BME280;65659;49.234;-2.094;2023-03-18T00:05:23;99305.68;;;25.58;28.62
73242;BME280;65659;49.234;-2.094;2023-03-18T00:07:48;99304.03;;;26.05;28.58
73242;BME280;65659;49.234;-2.094;2023-03-18T00:10:14;99301.76;;;25.77;28.68
73242;BME280;65659;49.234;-2.094;2023-03-18T00:12:41;99298.36;;;25.79;28.62
73242;BME280;65659;49.234;-2.094;2023-03-18T00:15:07;99301.44;;;25.75;28.65
73242;BME280;65659;49.234;-2.094;2023-03-18T00:17:31;99299.61;;;25.74;28.69
73242;BME280;65659;49.234;-2.094;2023-03-18T00:19:57;99302.18;;;25.54;28.63
73242;BME280;65659;49.234;-2.094;2023-03-18T00:22:23;99296.06;;;25.75;28.67
73242;BME280;65659;49.234;-2.094;2023-03-18T00:24:48;99290.24;;;25.76;28.64
73242;BME280;65659;49.234;-2.094;2023-03-18T00:27:14;99289.56;;;25.60;28.57
73242;BME280;65659;49.234;-2.094;2023-03-18T00:29:39;99288.84;;;25.88;28.50
73242;BME280;65659;49.234;-2.094;2023-03-18T00:32:06;99287.55;;;25.82;28.56
73242;BME280;65659;49.234;-2.094;2023-03-18T00:34:31;99287.13;;;25.74;28.63
73242;BME280;65659;49.234;-2.094;2023-03-18T00:36:57;99288.28;;;25.68;28.70
73242;BME280;65659;49.234;-2.094;2023-03-18T00:39:23;99286.89;;;25.68;28.74
73242;BME280;65659;49.234;-2.094;2023-03-18T00:41:48;99283.19;;;25.74;28.64
73242;BME280;65659;49.234;-2.094;2023-03-18T00:44:14;99278.04;;;25.98;28.66
73242;BME280;65659;49.234;-2.094;2023-03-18T00:46:39;99273.91;;;25.99;28.63
73242;BME280;65659;49.234;-2.094;2023-03-18T00:49:07;99272.17;;;25.97;28.63
73242;BME280;65659;49.234;-2.094;2023-03-18T00:51:33;99270.75;;;25.72;28.69
73242;BME280;65659;49.234;-2.094;2023-03-18T00:53:58;99264.46;;;25.71;28.69
73242;BME280;65659;49.234;-2.094;2023-03-18T00:56:24;99261.72;;;25.48;28.67
73242;BME280;65659;49.234;-2.094;2023-03-18T00:58:49;99256.67;;;25.76;28.61
73242;BME280;65659;49.234;-2.094;2023-03-18T01:01:15;99255.80;;;25.76;28.59
73242;BME280;65659;49.234;-2.094;2023-03-18T01:03:45;99253.61;;;25.57;28.53
73242;BME280;65659;49.234;-2.094;2023-03-18T01:06:05;99254.84;;;25.88;28.48
73242;BME280;65659;49.234;-2.094;2023-03-18T01:08:31;99250.07;;;25.84;28.51
73242;BME280;65659;49.234;-2.094;2023-03-18T01:10:57;99249.55;;;26.06;28.52
73242;BME280;65659;49.234;-2.094;2023-03-18T01:13:22;99248.31;;;25.80;28.54
73242;BME280;65659;49.234;-2.094;2023-03-18T01:15:48;99247.86;;;25.81;28.55
73242;BME280;65659;49.234;-2.094;2023-03-18T01:18:13;99246.20;;;25.55;28.57
73242;BME280;65659;49.234;-2.094;2023-03-18T01:20:39;99246.01;;;25.80;28.55
73242;BME280;65659;49.234;-2.094;2023-03-18T01:23:05;99244.44;;;26.04;28.55
73242;BME280;65659;49.234;-2.094;2023-03-18T01:25:30;99241.33;;;25.73;28.62
73242;BME280;65659;49.234;-2.094;2023-03-18T01:27:56;99238.04;;;25.92;28.67
73242;BME280;65659;49.234;-2.094;2023-03-18T01:30:22;99237.50;;;25.91;28.70
73242;BME280;65659;49.234;-2.094;2023-03-18T01:32:47;99232.92;;;25.94;28.63
73242;BME280;65659;49.234;-2.094;2023-03-18T01:35:13;99230.14;;;25.49;28.63
73242;BME280;65659;49.234;-2.094;2023-03-18T01:37:39;99231.12;;;25.50;28.62
73242;BME280;65659;49.234;-2.094;2023-03-18T01:40:07;99226.83;;;25.73;28.62
73242;BME280;65659;49.234;-2.094;2023-03-18T01:42:31;99226.31;;;25.58;28.50
73242;BME280;65659;49.234;-2.094;2023-03-18T01:45:09;99221.86;;;25.80;28.55
73242;BME280;65659;49.234;-2.094;2023-03-18T01:47:22;99220.10;;;25.52;28.57
73242;BME280;65659;49.234;-2.094;2023-03-18T01:49:48;99211.82;;;25.52;28.58
73242;BME280;65659;49.234;-2.094;2023-03-18T01:52:18;99212.11;;;25.55;28.54
73242;BME280;65659;49.234;-2.094;2023-03-18T01:54:40;99211.47;;;25.79;28.55
73242;BME280;65659;49.234;-2.094;2023-03-18T01:57:05;99203.56;;;25.75;28.58
73242;BME280;65659;49.234;-2.094;2023-03-18T01:59:32;99198.88;;;25.74;28.61
73242;BME280;65659;49.234;-2.094;2023-03-18T02:02:01;99195.50;;;26.00;28.58
73242;BME280;65659;49.234;-2.094;2023-03-18T02:04:24;99187.42;;;25.50;28.60
73242;BME280;65659;49.234;-2.094;2023-03-18T02:06:47;99183.95;;;25.51;28.59
73242;BME280;65659;49.234;-2.094;2023-03-18T02:09:13;99183.75;;;25.97;28.61
73242;BME280;65659;49.234;-2.094;2023-03-18T02:11:42;99179.30;;;25.69;28.65
73242;BME280;65659;49.234;-2.094;2023-03-18T02:14:06;99177.49;;;25.45;28.67
73242;BME280;65659;49.234;-2.094;2023-03-18T02:16:34;99172.91;;;25.50;28.61
73242;BME280;65659;49.234;-2.094;2023-03-18T02:18:58;99168.81;;;25.81;28.52
73242;BME280;65659;49.234;-2.094;2023-03-18T02:21:32;99167.58;;;25.59;28.50
73242;BME280;65659;49.234;-2.094;2023-03-18T02:23:54;99166.54;;;25.83;28.49
73242;BME280;65659;49.234;-2.094;2023-03-18T02:26:19;99160.42;;;26.04;28.53
73242;BME280;65659;49.234;-2.094;2023-03-18T02:28:39;99157.40;;;25.74;28.59
73242;BME280;65659;49.234;-2.094;2023-03-18T02:31:09;99154.62;;;25.49;28.60
73242;BME280;65659;49.234;-2.094;2023-03-18T02:33:33;99155.24;;;25.71;28.62
73242;BME280;65659;49.234;-2.094;2023-03-18T02:35:58;99146.83;;;25.51;28.60
73242;BME280;65659;49.234;-2.094;2023-03-18T02:38:21;99144.05;;;25.76;28.59
73242;BME280;65659;49.234;-2.094;2023-03-18T02:40:47;99147.72;;;25.74;28.59
73242;BME280;65659;49.234;-2.094;2023-03-18T02:43:18;99143.37;;;25.50;28.62
73242;BME280;65659;49.234;-2.094;2023-03-18T02:45:44;99138.84;;;25.98;28.59
73242;BME280;65659;49.234;-2.094;2023-03-18T02:48:05;99138.84;;;25.74;28.62
73242;BME280;65659;49.234;-2.094;2023-03-18T02:50:30;99138.12;;;25.48;28.59
73242;BME280;65659;49.234;-2.094;2023-03-18T02:52:56;99135.19;;;25.94;28.63
73242;BME280;65659;49.234;-2.094;2023-03-18T02:55:21;99136.07;;;25.54;28.54
73242;BME280;65659;49.234;-2.094;2023-03-18T02:57:47;99134.40;;;26.05;28.50
73242;BME280;65659;49.234;-2.094;2023-03-18T03:00:13;99132.74;;;25.77;28.54
73242;BME280;65659;49.234;-2.094;2023-03-18T03:02:38;99132.49;;;25.73;28.58
73242;BME280;65659;49.234;-2.094;2023-03-18T03:05:04;99134.18;;;25.69;28.61
73242;BME280;65659;49.234;-2.094;2023-03-18T03:07:29;99136.54;;;25.70;28.61
73242;BME280;65659;49.234;-2.094;2023-03-18T03:09:55;99136.35;;;25.93;28.61
73242;BME280;65659;49.234;-2.094;2023-03-18T03:12:21;99134.92;;;25.67;28.62
73242;BME280;65659;49.234;-2.094;2023-03-18T03:14:46;99135.41;;;25.65;28.64
73242;BME280;65659;49.234;-2.094;2023-03-18T03:17:12;99128.08;;;25.68;28.59
73242;BME280;65659;49.234;-2.094;2023-03-18T03:19:38;99131.87;;;25.91;28.63
73242;BME280;65659;49.234;-2.094;2023-03-18T03:22:04;99127.57;;;25.64;28.65
73242;BME280;65659;49.234;-2.094;2023-03-18T03:24:29;99126.63;;;25.65;28.62
73242;BME280;65659;49.234;-2.094;2023-03-18T03:26:55;99126.85;;;25.60;28.66
73242;BME280;65659;49.234;-2.094;2023-03-18T03:29:20;99128.25;;;25.87;28.64
73242;BME280;65659;49.234;-2.094;2023-03-18T03:31:46;99124.19;;;25.51;28.53
73242;BME280;65659;49.234;-2.094;2023-03-18T03:34:12;99119.19;;;26.04;28.45
73242;BME280;65659;49.234;-2.094;2023-03-18T03:36:38;99118.97;;;25.54;28.49
73242;BME280;65659;49.234;-2.094;2023-03-18T03:39:03;99122.72;;;25.49;28.54
73242;BME280;65659;49.234;-2.094;2023-03-18T03:41:29;99121.33;;;25.47;28.57
73242;BME280;65659;49.234;-2.094;2023-03-18T03:43:54;99124.29;;;25.96;28.55
73242;BME280;65659;49.234;-2.094;2023-03-18T03:46:20;99122.97;;;25.48;28.57
73242;BME280;65659;49.234;-2.094;2023-03-18T03:48:46;99122.31;;;25.51;28.56
73242;BME280;65659;49.234;-2.094;2023-03-18T03:51:12;99123.14;;;25.97;28.57
73242;BME280;65659;49.234;-2.094;2023-03-18T03:53:37;99122.58;;;25.47;28.58
73242;BME280;65659;49.234;-2.094;2023-03-18T03:56:04;99125.11;;;25.48;28.60
73242;BME280;65659;49.234;-2.094;2023-03-18T03:58:29;99124.83;;;25.71;28.60
73242;BME280;65659;49.234;-2.094;2023-03-18T04:00:54;99124.59;;;25.66;28.64
73242;BME280;65659;49.234;-2.094;2023-03-18T04:03:20;99122.25;;;25.42;28.62
73242;BME280;65659;49.234;-2.094;2023-03-18T04:05:46;99124.55;;;25.91;28.62
73242;BME280;65659;49.234;-2.094;2023-03-18T04:08:11;99128.43;;;25.48;28.57
73242;BME280;65659;49.234;-2.094;2023-03-18T04:10:37;99128.28;;;25.77;28.52
73242;BME280;65659;49.234;-2.094;2023-03-18T04:13:03;99132.45;;;25.74;28.56
73242;BME280;65659;49.234;-2.094;2023-03-18T04:15:28;99135.87;;;25.69;28.61
73242;BME280;65659;49.234;-2.094;2023-03-18T04:17:54;99138.21;;;25.87;28.68
73242;BME280;65659;49.234;-2.094;2023-03-18T04:20:20;99138.70;;;25.38;28.68
73242;BME280;65659;49.234;-2.094;2023-03-18T04:22:46;99140.38;;;25.65;28.65
73242;BME280;65659;49.234;-2.094;2023-03-18T04:25:12;99142.14;;;25.62;28.68
73242;BME280;65659;49.234;-2.094;2023-03-18T04:27:37;99140.72;;;25.91;28.64
73242;BME280;65659;49.234;-2.094;2023-03-18T04:30:03;99142.90;;;25.65;28.64
73242;BME280;65659;49.234;-2.094;2023-03-18T04:32:28;99144.26;;;25.86;28.65
73242;BME280;65659;49.234;-2.094;2023-03-18T04:34:54;99144.39;;;25.34;28.70
73242;BME280;65659;49.234;-2.094;2023-03-18T04:37:20;99144.47;;;25.60;28.69
73242;BME280;65659;49.234;-2.094;2023-03-18T04:39:45;99143.50;;;25.85;28.67
73242;BME280;65659;49.234;-2.094;2023-03-18T04:42:11;99139.33;;;25.39;28.62
73242;BME280;65659;49.234;-2.094;2023-03-18T04:44:37;99149.00;;;25.89;28.65
73242;BME280;65659;49.234;-2.094;2023-03-18T04:47:03;99149.79;;;25.95;28.55
73242;BME280;65659;49.234;-2.094;2023-03-18T04:49:28;99152.73;;;25.47;28.56
73242;BME280;65659;49.234;-2.094;2023-03-18T04:51:54;99152.10;;;25.97;28.51
73242;BME280;65659;49.234;-2.094;2023-03-18T04:54:19;99153.41;;;25.93;28.56
73242;BME280;65659;49.234;-2.094;2023-03-18T04:56:45;99154.45;;;25.87;28.65
73242;BME280;65659;49.234;-2.094;2023-03-18T04:59:11;99155.71;;;25.86;28.66
73242;BME280;65659;49.234;-2.094;2023-03-18T05:01:36;99159.36;;;25.84;28.65
73242;BME280;65659;49.234;-2.094;2023-03-18T05:04:02;99160.20;;;25.60;28.67
73242;BME280;65659;49.234;-2.094;2023-03-18T05:06:29;99164.23;;;25.85;28.65
73242;BME280;65659;49.234;-2.094;2023-03-18T05:08:54;99163.88;;;25.37;28.64
73242;BME280;65659;49.234;-2.094;2023-03-18T05:11:20;99162.73;;;25.57;28.69
73242;BME280;65659;49.234;-2.094;2023-03-18T05:13:45;99165.52;;;25.62;28.64
73242;BME280;65659;49.234;-2.094;2023-03-18T05:16:11;99169.65;;;25.71;28.53
73242;BME280;65659;49.234;-2.094;2023-03-18T05:18:37;99169.46;;;25.70;28.56
73242;BME280;65659;49.234;-2.094;2023-03-18T05:21:02;99171.54;;;25.90;28.61
73242;BME280;65659;49.234;-2.094;2023-03-18T05:23:28;99175.52;;;25.45;28.56
73242;BME280;65659;49.234;-2.094;2023-03-18T05:25:54;99178.99;;;25.66;28.59
73242;BME280;65659;49.234;-2.094;2023-03-18T05:28:19;99180.86;;;25.82;28.69
73242;BME280;65659;49.234;-2.094;2023-03-18T05:30:45;99180.88;;;25.79;28.71
73242;BME280;65659;49.234;-2.094;2023-03-18T05:33:10;99182.54;;;25.51;28.76
73242;BME280;65659;49.234;-2.094;2023-03-18T05:35:36;99184.26;;;25.79;28.70
73242;BME280;65659;49.234;-2.094;2023-03-18T05:38:02;99183.24;;;25.75;28.73
73242;BME280;65659;49.234;-2.094;2023-03-18T05:40:27;99185.93;;;25.79;28.69
73242;BME280;65659;49.234;-2.094;2023-03-18T05:42:53;99187.50;;;25.81;28.66
73242;BME280;65659;49.234;-2.094;2023-03-18T05:45:19;99184.98;;;25.54;28.69
73242;BME280;65659;49.234;-2.094;2023-03-18T05:47:44;99183.41;;;25.74;28.74
73242;BME280;65659;49.234;-2.094;2023-03-18T05:50:11;99182.07;;;25.73;28.75
73242;BME280;65659;49.234;-2.094;2023-03-18T05:52:36;99185.17;;;25.74;28.74
73242;BME280;65659;49.234;-2.094;2023-03-18T05:55:01;99188.11;;;25.51;28.74
73242;BME280;65659;49.234;-2.094;2023-03-18T05:57:27;99193.95;;;25.75;28.74
73242;BME280;65659;49.234;-2.094;2023-03-18T05:59:53;99200.30;;;25.81;28.66
73242;BME280;65659;49.234;-2.094;2023-03-18T06:02:19;99206.58;;;25.84;28.64
73242;BME280;65659;49.234;-2.094;2023-03-18T06:04:44;99205.54;;;25.79;28.68
73242;BME280;65659;49.234;-2.094;2023-03-18T06:07:10;99207.49;;;25.81;28.67
73242;BME280;65659;49.234;-2.094;2023-03-18T06:09:36;99210.54;;;25.55;28.69
73242;BME280;65659;49.234;-2.094;2023-03-18T06:12:01;99210.49;;;25.77;28.72
73242;BME280;65659;49.234;-2.094;2023-03-18T06:14:27;99215.93;;;25.82;28.65
73242;BME280;65659;49.234;-2.094;2023-03-18T06:16:53;99219.29;;;25.60;28.63
73242;BME280;65659;49.234;-2.094;2023-03-18T06:19:18;99223.31;;;25.82;28.64
73242;BME280;65659;49.234;-2.094;2023-03-18T06:21:44;99224.88;;;25.80;28.67
73242;BME280;65659;49.234;-2.094;2023-03-18T06:24:10;99229.55;;;25.55;28.68
73242;BME280;65659;49.234;-2.094;2023-03-18T06:26:35;99236.22;;;25.82;28.63
73242;BME280;65659;49.234;-2.094;2023-03-18T06:29:01;99242.64;;;25.79;28.68
73242;BME280;65659;49.234;-2.094;2023-03-18T06:31:27;99241.84;;;25.83;28.61
73242;BME280;65659;49.234;-2.094;2023-03-18T06:33:52;99250.36;;;25.61;28.59
73242;BME280;65659;49.234;-2.094;2023-03-18T06:36:19;99256.63;;;25.66;28.53
73242;BME280;65659;49.234;-2.094;2023-03-18T06:38:44;99258.50;;;25.90;28.54
73242;BME280;65659;49.234;-2.094;2023-03-18T06:41:10;99260.20;;;25.82;28.63
73242;BME280;65659;49.234;-2.094;2023-03-18T06:43:35;99262.84;;;25.80;28.63
73242;BME280;65659;49.234;-2.094;2023-03-18T06:46:01;99263.87;;;25.80;28.65
73242;BME280;65659;49.234;-2.094;2023-03-18T06:48:26;99264.87;;;25.75;28.70
73242;BME280;65659;49.234;-2.094;2023-03-18T06:50:52;99266.74;;;25.54;28.66
73242;BME280;65659;49.234;-2.094;2023-03-18T06:53:18;99270.43;;;25.80;28.63
73242;BME280;65659;49.234;-2.094;2023-03-18T06:55:43;99273.95;;;25.79;28.64
73242;BME280;65659;49.234;-2.094;2023-03-18T06:58:10;99275.20;;;25.76;28.67
73242;BME280;65659;49.234;-2.094;2023-03-18T07:00:35;99279.53;;;25.50;28.72
73242;BME280;65659;49.234;-2.094;2023-03-18T07:03:00;99282.29;;;25.73;28.71
73242;BME280;65659;49.234;-2.094;2023-03-18T07:05:26;99282.73;;;25.75;28.69
73242;BME280;65659;49.234;-2.094;2023-03-18T07:07:52;99287.26;;;25.27;28.68
73242;BME280;65659;49.234;-2.094;2023-03-18T07:10:19;99290.07;;;25.78;28.65
73242;BME280;65659;49.234;-2.094;2023-03-18T07:12:43;99294.40;;;25.79;28.63
73242;BME280;65659;49.234;-2.094;2023-03-18T07:15:10;99299.00;;;25.84;28.55
73242;BME280;65659;49.234;-2.094;2023-03-18T07:17:34;99300.96;;;25.58;28.61
73242;BME280;65659;49.234;-2.094;2023-03-18T07:20:00;99300.20;;;25.58;28.60
73242;BME280;65659;49.234;-2.094;2023-03-18T07:22:26;99303.12;;;25.76;28.65
73242;BME280;65659;49.234;-2.094;2023-03-18T07:24:52;99306.77;;;25.76;28.62
73242;BME280;65659;49.234;-2.094;2023-03-18T07:27:17;99308.19;;;25.73;28.65
73242;BME280;65659;49.234;-2.094;2023-03-18T07:29:43;99308.73;;;25.74;28.66
73242;BME280;65659;49.234;-2.094;2023-03-18T07:32:09;99308.55;;;25.47;28.68
73242;BME280;65659;49.234;-2.094;2023-03-18T07:34:35;99313.80;;;25.70;28.69
73242;BME280;65659;49.234;-2.094;2023-03-18T07:37:00;99318.09;;;25.69;28.73
73242;BME280;65659;49.234;-2.094;2023-03-18T07:39:26;99323.74;;;25.68;28.71
73242;BME280;65659;49.234;-2.094;2023-03-18T07:41:51;99326.26;;;25.72;28.66
73242;BME280;65659;49.234;-2.094;2023-03-18T07:44:17;99330.53;;;25.50;28.63
73242;BME280;65659;49.234;-2.094;2023-03-18T07:46:43;99331.39;;;25.48;28.65
73242;BME280;65659;49.234;-2.094;2023-03-18T07:49:08;99332.62;;;25.48;28.64
73242;BME280;65659;49.234;-2.094;2023-03-18T07:51:34;99333.46;;;25.80;28.55
73242;BME280;65659;49.234;-2.094;2023-03-18T07:54:00;99335.75;;;25.75;28.59
73242;BME280;65659;49.234;-2.094;2023-03-18T07:56:25;99339.34;;;25.77;28.57
73242;BME280;65659;49.234;-2.094;2023-03-18T07:58:51;99344.80;;;25.56;28.52
73242;BME280;65659;49.234;-2.094;2023-03-18T08:01:17;99347.79;;;25.77;28.59
73242;BME280;65659;49.234;-2.094;2023-03-18T08:03:42;99352.75;;;25.50;28.62
73242;BME280;65659;49.234;-2.094;2023-03-18T08:06:08;99354.03;;;25.49;28.60
73242;BME280;65659;49.234;-2.094;2023-03-18T08:08:34;99356.70;;;25.76;28.57
73242;BME280;65659;49.234;-2.094;2023-03-18T08:10:59;99361.21;;;25.75;28.59
73242;BME280;65659;49.234;-2.094;2023-03-18T08:13:25;99363.36;;;25.80;28.53
73242;BME280;65659;49.234;-2.094;2023-03-18T08:15:51;99364.05;;;25.60;28.47
73242;BME280;65659;49.234;-2.094;2023-03-18T08:18:16;99368.38;;;25.56;28.51
73242;BME280;65659;49.234;-2.094;2023-03-18T08:20:42;99371.99;;;25.31;28.54
73242;BME280;65659;49.234;-2.094;2023-03-18T08:23:08;99377.00;;;25.76;28.56
73242;BME280;65659;49.234;-2.094;2023-03-18T08:25:34;99384.45;;;25.48;28.62
73242;BME280;65659;49.234;-2.094;2023-03-18T08:27:59;99385.46;;;25.55;28.54
73242;BME280;65659;49.234;-2.094;2023-03-18T08:30:25;99386.22;;;25.82;28.48
73242;BME280;65659;49.234;-2.094;2023-03-18T08:32:51;99393.67;;;25.74;28.57
73242;BME280;65659;49.234;-2.094;2023-03-18T08:35:16;99396.89;;;25.47;28.60
73242;BME280;65659;49.234;-2.094;2023-03-18T08:37:42;99396.93;;;25.52;28.56
73242;BME280;65659;49.234;-2.094;2023-03-18T08:40:09;99398.60;;;25.81;28.51
73242;BME280;65659;49.234;-2.094;2023-03-18T08:42:33;99399.68;;;25.82;28.46
73242;BME280;65659;49.234;-2.094;2023-03-18T08:44:59;99401.47;;;25.85;28.44
73242;BME280;65659;49.234;-2.094;2023-03-18T08:47:25;99403.48;;;25.56;28.49
73242;BME280;65659;49.234;-2.094;2023-03-18T08:49:50;99402.27;;;25.75;28.54
73242;BME280;65659;49.234;-2.094;2023-03-18T08:52:16;99407.90;;;25.75;28.52
73242;BME280;65659;49.234;-2.094;2023-03-18T08:54:42;99410.07;;;25.76;28.53
73242;BME280;65659;49.234;-2.094;2023-03-18T08:57:08;99415.33;;;25.73;28.57
73242;BME280;65659;49.234;-2.094;2023-03-18T08:59:33;99419.43;;;25.51;28.56
73242;BME280;65659;49.234;-2.094;2023-03-18T09:01:59;99424.31;;;25.53;28.54
73242;BME280;65659;49.234;-2.094;2023-03-18T09:04:24;99427.54;;;25.61;28.45
73242;BME280;65659;49.234;-2.094;2023-03-18T09:06:50;99425.38;;;25.57;28.48
73242;BME280;65659;49.234;-2.094;2023-03-18T09:09:16;99426.84;;;25.53;28.54
73242;BME280;65659;49.234;-2.094;2023-03-18T09:11:42;99424.66;;;25.78;28.50
73242;BME280;65659;49.234;-2.094;2023-03-18T09:14:07;99425.37;;;25.76;28.53
73242;BME280;65659;49.234;-2.094;2023-03-18T09:16:33;99426.72;;;25.55;28.48
73242;BME280;65659;49.234;-2.094;2023-03-18T09:18:59;99428.35;;;25.80;28.46
73242;BME280;65659;49.234;-2.094;2023-03-18T09:21:24;99429.77;;;25.55;28.49
73242;BME280;65659;49.234;-2.094;2023-03-18T09:23:50;99433.26;;;25.75;28.52
73242;BME280;65659;49.234;-2.094;2023-03-18T09:26:16;99439.61;;;25.28;28.51
73242;BME280;65659;49.234;-2.094;2023-03-18T09:28:41;99436.97;;;25.77;28.49
73242;BME280;65659;49.234;-2.094;2023-03-18T09:31:07;99434.74;;;25.79;28.46
73242;BME280;65659;49.234;-2.094;2023-03-18T09:33:33;99436.30;;;25.53;28.49
73242;BME280;65659;49.234;-2.094;2023-03-18T09:35:58;99438.16;;;25.73;28.52
73242;BME280;65659;49.234;-2.094;2023-03-18T09:38:24;99443.44;;;25.53;28.48
73242;BME280;65659;49.234;-2.094;2023-03-18T09:41:02;99446.13;;;25.86;28.41
73242;BME280;65659;49.234;-2.094;2023-03-18T09:43:27;99449.19;;;25.68;28.32
73242;BME280;65659;49.234;-2.094;2023-03-18T09:45:50;99453.70;;;25.61;28.37
73242;BME280;65659;49.234;-2.094;2023-03-18T09:48:25;99456.54;;;25.80;28.42
73242;BME280;65659;49.234;-2.094;2023-03-18T09:50:39;99458.15;;;25.59;28.41
73242;BME280;65659;49.234;-2.094;2023-03-18T09:53:09;99459.64;;;25.89;28.37
73242;BME280;65659;49.234;-2.094;2023-03-18T09:55:26;99463.35;;;25.45;28.29
73242;BME280;65659;49.234;-2.094;2023-03-18T09:57:53;99465.13;;;25.43;28.31
73242;BME280;65659;49.234;-2.094;2023-03-18T10:00:19;99468.47;;;25.91;28.33
73242;BME280;65659;49.234;-2.094;2023-03-18T10:02:49;99474.13;;;25.59;28.39
73242;BME280;65659;49.234;-2.094;2023-03-18T10:05:12;99476.80;;;25.60;28.39
73242;BME280;65659;49.234;-2.094;2023-03-18T10:07:35;99478.50;;;25.82;28.39
73242;BME280;65659;49.234;-2.094;2023-03-18T10:10:01;99480.40;;;25.79;28.44
73242;BME280;65659;49.234;-2.094;2023-03-18T10:12:30;99485.85;;;25.54;28.45
73242;BME280;65659;49.234;-2.094;2023-03-18T10:14:56;99490.64;;;25.80;28.46
73242;BME280;65659;49.234;-2.094;2023-03-18T10:17:18;99495.93;;;25.59;28.39
73242;BME280;65659;49.234;-2.094;2023-03-18T10:19:46;99497.97;;;25.94;28.32
73242;BME280;65659;49.234;-2.094;2023-03-18T10:22:17;99494.94;;;25.69;28.30
73242;BME280;65659;49.234;-2.094;2023-03-18T10:24:36;99501.19;;;25.44;28.32
73242;BME280;65659;49.234;-2.094;2023-03-18T10:27:05;99501.12;;;25.93;28.30
73242;BME280;65659;49.234;-2.094;2023-03-18T10:29:33;99503.62;;;25.68;28.34
73242;BME280;65659;49.234;-2.094;2023-03-18T10:32:01;99503.19;;;25.68;28.35
73242;BME280;65659;49.234;-2.094;2023-03-18T10:34:18;99505.79;;;25.70;28.32
73242;BME280;65659;49.234;-2.094;2023-03-18T10:36:49;99509.39;;;25.68;28.34
73242;BME280;65659;49.234;-2.094;2023-03-18T10:39:12;99511.52;;;25.90;28.38
73242;BME280;65659;49.234;-2.094;2023-03-18T10:41:34;99514.12;;;25.88;28.40
73242;BME280;65659;49.234;-2.094;2023-03-18T10:44:01;99517.50;;;25.87;28.44
73242;BME280;65659;49.234;-2.094;2023-03-18T10:46:24;99521.31;;;25.60;28.47
73242;BME280;65659;49.234;-2.094;2023-03-18T10:48:51;99523.91;;;25.64;28.46
73242;BME280;65659;49.234;-2.094;2023-03-18T10:51:20;99524.06;;;25.88;28.46
73242;BME280;65659;49.234;-2.094;2023-03-18T10:53:44;99523.40;;;25.44;28.40
73242;BME280;65659;49.234;-2.094;2023-03-18T10:56:08;99523.01;;;25.98;28.39
73242;BME280;65659;49.234;-2.094;2023-03-18T10:58:32;99524.67;;;25.67;28.44
73242;BME280;65659;49.234;-2.094;2023-03-18T11:00:57;99525.88;;;25.37;28.52
73242;BME280;65659;49.234;-2.094;2023-03-18T11:03:26;99525.48;;;25.84;28.56
73242;BME280;65659;49.234;-2.094;2023-03-18T11:05:50;99523.47;;;25.33;28.54
73242;BME280;65659;49.234;-2.094;2023-03-18T11:10:49;99527.05;;;25.87;28.51
73242;BME280;65659;49.234;-2.094;2023-03-18T11:13:06;99533.93;;;25.65;28.52
73242;BME280;65659;49.234;-2.094;2023-03-18T11:15:36;99535.78;;;25.42;28.53
73242;BME280;65659;49.234;-2.094;2023-03-18T11:17:58;99535.65;;;25.67;28.49
73242;BME280;65659;49.234;-2.094;2023-03-18T11:20:31;99537.73;;;25.42;28.55
73242;BME280;65659;49.234;-2.094;2023-03-18T11:22:50;99541.45;;;25.67;28.55
73242;BME280;65659;49.234;-2.094;2023-03-18T11:25:17;99543.05;;;25.45;28.54
73242;BME280;65659;49.234;-2.094;2023-03-18T11:27:42;99547.69;;;25.62;28.66
73242;BME280;65659;49.234;-2.094;2023-03-18T11:30:14;99550.27;;;25.64;28.62
73242;BME280;65659;49.234;-2.094;2023-03-18T11:32:33;99553.54;;;25.95;28.54
73242;BME280;65659;49.234;-2.094;2023-03-18T11:34:59;99553.01;;;25.73;28.54
73242;BME280;65659;49.234;-2.094;2023-03-18T11:37:28;99555.91;;;25.48;28.56
73242;BME280;65659;49.234;-2.094;2023-03-18T11:39:48;99557.52;;;25.96;28.53
73242;BME280;65659;49.234;-2.094;2023-03-18T11:42:17;99559.88;;;25.71;28.57
73242;BME280;65659;49.234;-2.094;2023-03-18T11:44:40;99562.92;;;25.70;28.63
73242;BME280;65659;49.234;-2.094;2023-03-18T11:47:11;99564.03;;;25.70;28.60
73242;BME280;65659;49.234;-2.094;2023-03-18T11:49:31;99566.23;;;25.44;28.65
73242;BME280;65659;49.234;-2.094;2023-03-18T11:52:10;99563.63;;;25.43;28.62
73242;BME280;65659;49.234;-2.094;2023-03-18T11:54:43;99565.88;;;25.65;28.66
73242;BME280;65659;49.234;-2.094;2023-03-18T11:56:52;99567.59;;;25.67;28.69
73242;BME280;65659;49.234;-2.094;2023-03-18T11:59:28;99565.88;;;25.71;28.65
73242;BME280;65659;49.234;-2.094;2023-03-18T12:01:46;99567.54;;;25.72;28.61
73242;BME280;65659;49.234;-2.094;2023-03-18T12:04:22;99571.87;;;25.68;28.65
73242;BME280;65659;49.234;-2.094;2023-03-18T12:06:33;99573.93;;;25.93;28.68
73242;BME280;65659;49.234;-2.094;2023-03-18T12:09:02;99576.69;;;25.77;28.62
73242;BME280;65659;49.234;-2.094;2023-03-18T12:11:39;99581.18;;;25.52;28.64
73242;BME280;65659;49.234;-2.094;2023-03-18T12:13:54;99583.83;;;25.73;28.70
73242;BME280;65659;49.234;-2.094;2023-03-18T12:16:21;99583.19;;;25.51;28.65
73242;BME280;65659;49.234;-2.094;2023-03-18T12:18:54;99587.13;;;25.97;28.67
73242;BME280;65659;49.234;-2.094;2023-03-18T12:21:16;99584.82;;;25.70;28.73
73242;BME280;65659;49.234;-2.094;2023-03-18T12:23:42;99584.71;;;25.89;28.74
73242;BME280;65659;49.234;-2.094;2023-03-18T12:26:01;99587.25;;;25.91;28.71
73242;BME280;65659;49.234;-2.094;2023-03-18T12:28:31;99584.67;;;25.46;28.79
73242;BME280;65659;49.234;-2.094;2023-03-18T12:30:58;99587.70;;;25.91;28.85
73242;BME280;65659;49.234;-2.094;2023-03-18T12:33:25;99589.04;;;25.64;28.84
73242;BME280;65659;49.234;-2.094;2023-03-18T12:35:47;99589.39;;;25.86;28.94
73242;BME280;65659;49.234;-2.094;2023-03-18T12:38:30;99589.06;;;25.86;28.94
73242;BME280;65659;49.234;-2.094;2023-03-18T12:40:39;99588.64;;;25.58;29.01
73242;BME280;65659;49.234;-2.094;2023-03-18T12:43:07;99590.21;;;25.86;28.98